Marco Polo — BR2031 — position and weather

sailwx.info

Track history (hours):
 
Tides and Currents Weather Stations Pressure Air Temp Water Temp Dewpoint Dewpoint Depression Visibility Wind Speed Wind Dir Waves Ship Positions

Marco Polo

Last reported at 2014-Nov-26 09:33 UTC. Time now 2014-Nov-26 10:05 UTC.
Position N 24°31' E 118°14'.

Length 32 m.

MMSI: 416000256.

Date/timePositionNaut miles runAvg speedWind from/ knotsBaromVisibWave heightAir tempDewpointWater temp
2014-Nov-26 09:33N 24°31' E 118°14'6 6.0
2014-Nov-26 08:34N 24°25' E 118°17'0 0.5
2014-Nov-26 07:33N 24°25' E 118°17'1 0.5
2014-Nov-26 06:32N 24°26' E 118°17'8 8.6
2014-Nov-26 05:33N 24°32' E 118°11'1 1.0
2014-Nov-26 04:33N 24°32' E 118°12'8 8.2
2014-Nov-26 03:33N 24°25' E 118°17'0 0.3
2014-Nov-26 02:08N 24°25' E 118°17'0 0.0
2014-Nov-26 00:29N 24°25' E 118°17'0 0.0
2014-Nov-25 23:32N 24°25' E 118°17'0 0.0
2014-Nov-25 22:22N 24°25' E 118°17'0 0.0
2014-Nov-25 21:31N 24°25' E 118°17'0 0.0
2014-Nov-25 20:33N 24°25' E 118°17'0 0.0
2014-Nov-25 19:33N 24°25' E 118°17'0 0.0
2014-Nov-25 18:33N 24°25' E 118°17'0 0.0
2014-Nov-25 17:33N 24°25' E 118°17'0 0.0
2014-Nov-25 16:33N 24°25' E 118°17'0 0.0
2014-Nov-25 15:31N 24°25' E 118°17'0 0.0
2014-Nov-25 14:32N 24°25' E 118°17'0 0.0
2014-Nov-25 09:25N 24°25' E 118°17'0 0.6
2014-Nov-25 08:33N 24°25' E 118°17'9 9.0
2014-Nov-25 07:33N 24°32' E 118°11'9 8.7
2014-Nov-25 06:32N 24°25' E 118°17'0 0.2
2014-Nov-25 05:32N 24°25' E 118°17'9 9.2
2014-Nov-25 04:33N 24°32' E 118°11'0 0.1
2014-Nov-25 03:33N 24°32' E 118°11'9 8.9
2014-Nov-25 02:32N 24°25' E 118°17'0 0.5
2014-Nov-25 01:32N 24°25' E 118°17'0 0.0
2014-Nov-25 00:32N 24°25' E 118°17'0 0.0
2014-Nov-24 23:33N 24°25' E 118°17'0 0.0
2014-Nov-24 21:33N 24°25' E 118°17'0 0.0
2014-Nov-24 20:33N 24°25' E 118°17'0 0.0
2014-Nov-24 19:33N 24°25' E 118°17'0 0.0
2014-Nov-24 18:33N 24°25' E 118°17'0 0.0
2014-Nov-24 17:33N 24°25' E 118°17'0 0.0
2014-Nov-24 16:33N 24°25' E 118°17'0 0.0
2014-Nov-24 15:33N 24°25' E 118°17'0 0.0
2014-Nov-24 14:33N 24°25' E 118°17'0 0.0
2014-Nov-24 08:04N 24°25' E 118°17'0 0.9
2014-Nov-24 07:33N 24°25' E 118°17'9 9.0
2014-Nov-24 06:33N 24°32' E 118°11'9 8.8
2014-Nov-24 05:32N 24°25' E 118°17'0 0.0
2014-Nov-24 04:33N 24°25' E 118°17'0 0.1
2014-Nov-24 03:33N 24°25' E 118°17'0 0.3
2014-Nov-24 02:33N 24°25' E 118°17'9 8.8
2014-Nov-24 01:33N 24°32' E 118°11'9 8.9
2014-Nov-24 00:33N 24°25' E 118°17'0 0.0
2014-Nov-23 23:32N 24°25' E 118°17'0 0.0
2014-Nov-23 22:33N 24°25' E 118°17'0 0.0
2014-Nov-23 21:33N 24°25' E 118°17'0 0.0
2014-Nov-23 20:33N 24°25' E 118°17'0 0.0
2014-Nov-23 19:33N 24°25' E 118°17'0 0.0
2014-Nov-23 18:33N 24°25' E 118°17'0 0.0
2014-Nov-23 17:32N 24°25' E 118°17'0 0.0
2014-Nov-23 16:33N 24°25' E 118°17'0 0.0
2014-Nov-23 15:34N 24°25' E 118°17'0 0.0
2014-Nov-23 14:33N 24°25' E 118°17'2 0.3
2014-Nov-23 09:32N 24°27' E 118°17'8 7.6
2014-Nov-23 08:33N 24°32' E 118°11'8 7.9
2014-Nov-23 07:33N 24°26' E 118°17'1 1.3
2014-Nov-23 06:33N 24°25' E 118°17'0 0.0
2014-Nov-23 05:33N 24°25' E 118°17'0 0.0
2014-Nov-23 04:33N 24°25' E 118°17'8 7.6
2014-Nov-23 03:29N 24°32' E 118°12'1 1.2
2014-Nov-23 02:32N 24°32' E 118°11'9 9.1
2014-Nov-23 01:33N 24°25' E 118°17'0 0.1
2014-Nov-23 00:32N 24°25' E 118°17'0 0.0
2014-Nov-22 23:23N 24°25' E 118°17'0 0.0
2014-Nov-22 22:25N 24°25' E 118°17'0 0.0
2014-Nov-22 21:22N 24°25' E 118°17'0 0.0
2014-Nov-22 20:29N 24°25' E 118°17'0 0.0
2014-Nov-22 19:31N 24°25' E 118°17'0 0.0
2014-Nov-22 18:31N 24°25' E 118°17'0 0.0
2014-Nov-22 17:28N 24°25' E 118°17'0 0.0
2014-Nov-22 16:32N 24°25' E 118°17'0 0.0
2014-Nov-22 15:27N 24°25' E 118°17'0 0.0
2014-Nov-22 09:04N 24°25' E 118°17'0 0.0
2014-Nov-22 08:15N 24°25' E 118°17'0 0.0
2014-Nov-22 07:33N 24°25' E 118°17'0 0.0
2014-Nov-22 06:33N 24°25' E 118°17'9 7.7
2014-Nov-22 05:24N 24°32' E 118°11'1 1.1
2014-Nov-22 04:31N 24°32' E 118°12'8 7.2
2014-Nov-22 03:23N 24°25' E 118°17'1 0.4
2014-Nov-22 01:31N 24°26' E 118°17'8 8.7
2014-Nov-22 00:33N 24°32' E 118°11'9 9.1
2014-Nov-21 23:33N 24°25' E 118°17'0 0.0
2014-Nov-21 22:31N 24°25' E 118°17'0 0.0
2014-Nov-21 21:29N 24°25' E 118°17'0 0.0
2014-Nov-21 20:32N 24°25' E 118°17'0 0.0
2014-Nov-21 19:33N 24°25' E 118°17'0 0.0
2014-Nov-21 18:30N 24°25' E 118°17'0 0.0
2014-Nov-21 17:33N 24°25' E 118°17'0 0.0
2014-Nov-21 16:27N 24°25' E 118°17'0 0.0
2014-Nov-21 15:33N 24°25' E 118°17'0 0.0
2014-Nov-21 14:34N 24°25' E 118°17'9 1.8
2014-Nov-21 09:28N 24°32' E 118°11'9 9.8
2014-Nov-21 08:33N 24°25' E 118°17'0 0.2
2014-Nov-21 06:25N 24°25' E 118°17'0 0.0
2014-Nov-21 05:28N 24°25' E 118°17'0 0.0
2014-Nov-21 04:32N 24°25' E 118°17'0 0.0
2014-Nov-21 03:30N 24°25' E 118°17'0 0.0
2014-Nov-21 02:33N 24°25' E 118°17'0 0.0
2014-Nov-21 01:33N 24°25' E 118°17'0 0.0
2014-Nov-21 00:31N 24°25' E 118°17'0 0.0
2014-Nov-20 23:32N 24°25' E 118°17'0 0.0
2014-Nov-20 22:32N 24°25' E 118°17'0 0.0
2014-Nov-20 21:30N 24°25' E 118°17'0 0.0
2014-Nov-20 20:31N 24°25' E 118°17'0 0.0
2014-Nov-20 19:33N 24°25' E 118°17'0 0.0
2014-Nov-20 18:32N 24°25' E 118°17'0 0.0
2014-Nov-20 17:31N 24°25' E 118°17'0 0.0
2014-Nov-20 16:33N 24°25' E 118°17'0 0.0
2014-Nov-20 15:33N 24°25' E 118°17'0 0.0
2014-Nov-20 14:32N 24°25' E 118°17'0 0.0
2014-Nov-20 09:31N 24°25' E 118°17'0 0.0
2014-Nov-20 08:08N 24°25' E 118°17'0 0.8
2014-Nov-20 07:30N 24°25' E 118°17'9 9.5
2014-Nov-20 06:33N 24°32' E 118°11'9 8.0
2014-Nov-20 05:26N 24°25' E 118°17'0 0.1
2014-Nov-20 04:32N 24°25' E 118°17'9 8.1
2014-Nov-20 03:26N 24°32' E 118°11'1 0.6
2014-Nov-20 02:32N 24°32' E 118°12'8 7.2
2014-Nov-20 01:22N 24°25' E 118°17'0 0.0
2014-Nov-19 07:07N 24°25' E 118°17'0 0.0
2014-Nov-19 06:31N 24°25' E 118°17'9 8.3
2014-Nov-19 05:26N 24°32' E 118°11'1 1.5
2014-Nov-19 04:33N 24°32' E 118°13'8 6.7
2014-Nov-19 03:22N 24°25' E 118°17'0 0.1
2014-Nov-19 02:32N 24°25' E 118°17'8 8.3
2014-Nov-19 01:33N 24°32' E 118°12'8 6.4
2014-Nov-19 00:17N 24°25' E 118°17'0 0.0
2014-Nov-18 23:32N 24°25' E 118°17'0 0.0
2014-Nov-18 22:29N 24°25' E 118°17'0 0.0
2014-Nov-18 21:22N 24°25' E 118°17'0 0.0
2014-Nov-18 20:33N 24°25' E 118°17'0 0.0
2014-Nov-18 19:33N 24°25' E 118°17'0 0.0
2014-Nov-18 18:26N 24°25' E 118°17'0 0.0
2014-Nov-18 17:32N 24°25' E 118°17'0 0.0
2014-Nov-18 16:33N 24°25' E 118°17'0 0.0
2014-Nov-18 15:30N 24°25' E 118°17'2 0.3
2014-Nov-18 09:26N 24°27' E 118°17'8 6.4
2014-Nov-18 08:13N 24°32' E 118°11'9 5.1
2014-Nov-18 06:29N 24°25' E 118°17'7 3.8
2014-Nov-18 04:33N 24°31' E 118°13'0 0.1
2014-Nov-18 03:33N 24°31' E 118°13'7 7.3
2014-Nov-18 02:33N 24°25' E 118°17'0 0.4
2014-Nov-18 01:22N 24°25' E 118°17'0 0.0
2014-Nov-18 00:33N 24°25' E 118°17'0 0.0
2014-Nov-17 23:33N 24°25' E 118°17'0 0.0
2014-Nov-17 22:32N 24°25' E 118°17'0 0.0
2014-Nov-17 15:06N 24°25' E 118°17'0 0.0
2014-Nov-17 14:33N 24°25' E 118°17'2 0.2
2014-Nov-17 06:29N 24°27' E 118°17'7 7.7
2014-Nov-17 05:33N 24°32' E 118°11'1 1.1
2014-Nov-17 04:33N 24°32' E 118°12'8 7.5
2014-Nov-17 03:28N 24°25' E 118°17'0 0.5
2014-Nov-17 02:33N 24°25' E 118°17'0 0.4
2014-Nov-17 01:33N 24°25' E 118°17'9 8.7
2014-Nov-17 00:33N 24°32' E 118°12'9 7.9
2014-Nov-16 23:26N 24°25' E 118°17'0 0.0
2014-Nov-16 22:21N 24°25' E 118°17'  
Track history (hours):
 
Tides and Currents Weather Stations Pressure Air Temp Water Temp Dewpoint Dewpoint Depression Visibility Wind Speed Wind Dir Waves Ship Positions

Marco Polo

Last reported at 2014-Nov-26 09:33 UTC. Time now 2014-Nov-26 10:05 UTC.
Position N 24°31' E 118°14'.

Length 32 m.

MMSI: 416000256.

Date/timePositionNaut miles runAvg speedWind from/ knotsBaromVisibWave heightAir tempDewpointWater temp
2014-Nov-26 09:33N 24°31' E 118°14'6 6.0
2014-Nov-26 08:34N 24°25' E 118°17'0 0.5
2014-Nov-26 07:33N 24°25' E 118°17'1 0.5
2014-Nov-26 06:32N 24°26' E 118°17'8 8.6
2014-Nov-26 05:33N 24°32' E 118°11'1 1.0
2014-Nov-26 04:33N 24°32' E 118°12'8 8.2
2014-Nov-26 03:33N 24°25' E 118°17'0 0.3
2014-Nov-26 02:08N 24°25' E 118°17'0 0.0
2014-Nov-26 00:29N 24°25' E 118°17'0 0.0
2014-Nov-25 23:32N 24°25' E 118°17'0 0.0
2014-Nov-25 22:22N 24°25' E 118°17'0 0.0
2014-Nov-25 21:31N 24°25' E 118°17'0 0.0
2014-Nov-25 20:33N 24°25' E 118°17'0 0.0
2014-Nov-25 19:33N 24°25' E 118°17'0 0.0
2014-Nov-25 18:33N 24°25' E 118°17'0 0.0
2014-Nov-25 17:33N 24°25' E 118°17'0 0.0
2014-Nov-25 16:33N 24°25' E 118°17'0 0.0
2014-Nov-25 15:31N 24°25' E 118°17'0 0.0
2014-Nov-25 14:32N 24°25' E 118°17'0 0.0
2014-Nov-25 09:25N 24°25' E 118°17'0 0.6
2014-Nov-25 08:33N 24°25' E 118°17'9 9.0
2014-Nov-25 07:33N 24°32' E 118°11'9 8.7
2014-Nov-25 06:32N 24°25' E 118°17'0 0.2
2014-Nov-25 05:32N 24°25' E 118°17'9 9.2
2014-Nov-25 04:33N 24°32' E 118°11'0 0.1
2014-Nov-25 03:33N 24°32' E 118°11'9 8.9
2014-Nov-25 02:32N 24°25' E 118°17'0 0.5
2014-Nov-25 01:32N 24°25' E 118°17'0 0.0
2014-Nov-25 00:32N 24°25' E 118°17'0 0.0
2014-Nov-24 23:33N 24°25' E 118°17'0 0.0
2014-Nov-24 21:33N 24°25' E 118°17'0 0.0
2014-Nov-24 20:33N 24°25' E 118°17'0 0.0
2014-Nov-24 19:33N 24°25' E 118°17'0 0.0
2014-Nov-24 18:33N 24°25' E 118°17'0 0.0
2014-Nov-24 17:33N 24°25' E 118°17'0 0.0
2014-Nov-24 16:33N 24°25' E 118°17'0 0.0
2014-Nov-24 15:33N 24°25' E 118°17'0 0.0
2014-Nov-24 14:33N 24°25' E 118°17'0 0.0
2014-Nov-24 08:04N 24°25' E 118°17'0 0.9
2014-Nov-24 07:33N 24°25' E 118°17'9 9.0
2014-Nov-24 06:33N 24°32' E 118°11'9 8.8
2014-Nov-24 05:32N 24°25' E 118°17'0 0.0
2014-Nov-24 04:33N 24°25' E 118°17'0 0.1
2014-Nov-24 03:33N 24°25' E 118°17'0 0.3
2014-Nov-24 02:33N 24°25' E 118°17'9 8.8
2014-Nov-24 01:33N 24°32' E 118°11'9 8.9
2014-Nov-24 00:33N 24°25' E 118°17'0 0.0
2014-Nov-23 23:32N 24°25' E 118°17'0 0.0
2014-Nov-23 22:33N 24°25' E 118°17'0 0.0
2014-Nov-23 21:33N 24°25' E 118°17'0 0.0
2014-Nov-23 20:33N 24°25' E 118°17'0 0.0
2014-Nov-23 19:33N 24°25' E 118°17'0 0.0
2014-Nov-23 18:33N 24°25' E 118°17'0 0.0
2014-Nov-23 17:32N 24°25' E 118°17'0 0.0
2014-Nov-23 16:33N 24°25' E 118°17'0 0.0
2014-Nov-23 15:34N 24°25' E 118°17'0 0.0
2014-Nov-23 14:33N 24°25' E 118°17'2 0.3
2014-Nov-23 09:32N 24°27' E 118°17'8 7.6
2014-Nov-23 08:33N 24°32' E 118°11'8 7.9
2014-Nov-23 07:33N 24°26' E 118°17'1 1.3
2014-Nov-23 06:33N 24°25' E 118°17'0 0.0
2014-Nov-23 05:33N 24°25' E 118°17'0 0.0
2014-Nov-23 04:33N 24°25' E 118°17'8 7.6
2014-Nov-23 03:29N 24°32' E 118°12'1 1.2
2014-Nov-23 02:32N 24°32' E 118°11'9 9.1
2014-Nov-23 01:33N 24°25' E 118°17'0 0.1
2014-Nov-23 00:32N 24°25' E 118°17'0 0.0
2014-Nov-22 23:23N 24°25' E 118°17'0 0.0
2014-Nov-22 22:25N 24°25' E 118°17'0 0.0
2014-Nov-22 21:22N 24°25' E 118°17'0 0.0
2014-Nov-22 20:29N 24°25' E 118°17'0 0.0
2014-Nov-22 19:31N 24°25' E 118°17'0 0.0
2014-Nov-22 18:31N 24°25' E 118°17'0 0.0
2014-Nov-22 17:28N 24°25' E 118°17'0 0.0
2014-Nov-22 16:32N 24°25' E 118°17'0 0.0
2014-Nov-22 15:27N 24°25' E 118°17'0 0.0
2014-Nov-22 09:04N 24°25' E 118°17'0 0.0
2014-Nov-22 08:15N 24°25' E 118°17'0 0.0
2014-Nov-22 07:33N 24°25' E 118°17'0 0.0
2014-Nov-22 06:33N 24°25' E 118°17'9 7.7
2014-Nov-22 05:24N 24°32' E 118°11'1 1.1
2014-Nov-22 04:31N 24°32' E 118°12'8 7.2
2014-Nov-22 03:23N 24°25' E 118°17'1 0.4
2014-Nov-22 01:31N 24°26' E 118°17'8 8.7
2014-Nov-22 00:33N 24°32' E 118°11'9 9.1
2014-Nov-21 23:33N 24°25' E 118°17'0 0.0
2014-Nov-21 22:31N 24°25' E 118°17'0 0.0
2014-Nov-21 21:29N 24°25' E 118°17'0 0.0
2014-Nov-21 20:32N 24°25' E 118°17'0 0.0
2014-Nov-21 19:33N 24°25' E 118°17'0 0.0
2014-Nov-21 18:30N 24°25' E 118°17'0 0.0
2014-Nov-21 17:33N 24°25' E 118°17'0 0.0
2014-Nov-21 16:27N 24°25' E 118°17'0 0.0
2014-Nov-21 15:33N 24°25' E 118°17'0 0.0
2014-Nov-21 14:34N 24°25' E 118°17'9 1.8
2014-Nov-21 09:28N 24°32' E 118°11'9 9.8
2014-Nov-21 08:33N 24°25' E 118°17'0 0.2
2014-Nov-21 06:25N 24°25' E 118°17'0 0.0
2014-Nov-21 05:28N 24°25' E 118°17'0 0.0
2014-Nov-21 04:32N 24°25' E 118°17'0 0.0
2014-Nov-21 03:30N 24°25' E 118°17'0 0.0
2014-Nov-21 02:33N 24°25' E 118°17'0 0.0
2014-Nov-21 01:33N 24°25' E 118°17'0 0.0
2014-Nov-21 00:31N 24°25' E 118°17'0 0.0
2014-Nov-20 23:32N 24°25' E 118°17'0 0.0
2014-Nov-20 22:32N 24°25' E 118°17'0 0.0
2014-Nov-20 21:30N 24°25' E 118°17'0 0.0
2014-Nov-20 20:31N 24°25' E 118°17'0 0.0
2014-Nov-20 19:33N 24°25' E 118°17'0 0.0
2014-Nov-20 18:32N 24°25' E 118°17'0 0.0
2014-Nov-20 17:31N 24°25' E 118°17'0 0.0
2014-Nov-20 16:33N 24°25' E 118°17'0 0.0
2014-Nov-20 15:33N 24°25' E 118°17'0 0.0
2014-Nov-20 14:32N 24°25' E 118°17'0 0.0
2014-Nov-20 09:31N 24°25' E 118°17'0 0.0
2014-Nov-20 08:08N 24°25' E 118°17'0 0.8
2014-Nov-20 07:30N 24°25' E 118°17'9 9.5
2014-Nov-20 06:33N 24°32' E 118°11'9 8.0
2014-Nov-20 05:26N 24°25' E 118°17'0 0.1
2014-Nov-20 04:32N 24°25' E 118°17'9 8.1
2014-Nov-20 03:26N 24°32' E 118°11'1 0.6
2014-Nov-20 02:32N 24°32' E 118°12'8 7.2
2014-Nov-20 01:22N 24°25' E 118°17'0 0.0
2014-Nov-19 07:07N 24°25' E 118°17'0 0.0
2014-Nov-19 06:31N 24°25' E 118°17'9 8.3
2014-Nov-19 05:26N 24°32' E 118°11'1 1.5
2014-Nov-19 04:33N 24°32' E 118°13'8 6.7
2014-Nov-19 03:22N 24°25' E 118°17'0 0.1
2014-Nov-19 02:32N 24°25' E 118°17'8 8.3
2014-Nov-19 01:33N 24°32' E 118°12'8 6.4
2014-Nov-19 00:17N 24°25' E 118°17'0 0.0
2014-Nov-18 23:32N 24°25' E 118°17'0 0.0
2014-Nov-18 22:29N 24°25' E 118°17'0 0.0
2014-Nov-18 21:22N 24°25' E 118°17'0 0.0
2014-Nov-18 20:33N 24°25' E 118°17'0 0.0
2014-Nov-18 19:33N 24°25' E 118°17'0 0.0
2014-Nov-18 18:26N 24°25' E 118°17'0 0.0
2014-Nov-18 17:32N 24°25' E 118°17'0 0.0
2014-Nov-18 16:33N 24°25' E 118°17'0 0.0
2014-Nov-18 15:30N 24°25' E 118°17'2 0.3
2014-Nov-18 09:26N 24°27' E 118°17'8 6.4
2014-Nov-18 08:13N 24°32' E 118°11'9 5.1
2014-Nov-18 06:29N 24°25' E 118°17'7 3.8
2014-Nov-18 04:33N 24°31' E 118°13'0 0.1
2014-Nov-18 03:33N 24°31' E 118°13'7 7.3
2014-Nov-18 02:33N 24°25' E 118°17'0 0.4
2014-Nov-18 01:22N 24°25' E 118°17'0 0.0
2014-Nov-18 00:33N 24°25' E 118°17'0 0.0
2014-Nov-17 23:33N 24°25' E 118°17'0 0.0
2014-Nov-17 22:32N 24°25' E 118°17'0 0.0
2014-Nov-17 15:06N 24°25' E 118°17'0 0.0
2014-Nov-17 14:33N 24°25' E 118°17'2 0.2
2014-Nov-17 06:29N 24°27' E 118°17'7 7.7
2014-Nov-17 05:33N 24°32' E 118°11'1 1.1
2014-Nov-17 04:33N 24°32' E 118°12'8 7.5
2014-Nov-17 03:28N 24°25' E 118°17'0 0.5
2014-Nov-17 02:33N 24°25' E 118°17'0 0.4
2014-Nov-17 01:33N 24°25' E 118°17'9 8.7
2014-Nov-17 00:33N 24°32' E 118°12'9 7.9
2014-Nov-16 23:26N 24°25' E 118°17'0 0.0
2014-Nov-16 22:21N 24°25' E 118°17'  

Dump ship's entire track history